Time;durP1;ratioP1;P1;durP2;ratioP2;P2;SDS_P1;SDS_P2;PMS_P1;PMS_P2;Temp;Humidity;BMP_temperature;BMP_pressure;BME280_temperature;BME280_humidity;BME280_pressure;Samples;Min_cycle;Max_cycle;Signal;HPM_P1;HPM_P2
2024/04/08 00:00:24;;;;;;;126.38;120.13;;;;;;;;;;5032881;28;20030;-58
2024/04/08 00:02:50;;;;;;;134.15;127.47;;;;;;;;;;5031021;28;20079;-59
2024/04/08 00:05:19;;;;;;;126.75;120.47;;;;;;;;;;5034190;28;20040;-59
2024/04/08 00:07:45;;;;;;;131.23;124.68;;;;;;;;;;5033345;28;20137;-59
2024/04/08 00:10:11;;;;;;;113.05;107.43;;;;;;;;;;5035175;28;20052;-59
2024/04/08 00:12:45;;;;;;;108.95;103.35;;;;;;;;;;5026805;28;20045;-59
2024/04/08 00:15:11;;;;;;;110.75;105.13;;;;;;;;;;5036387;28;20115;-58
2024/04/08 00:17:40;;;;;;;119.43;113.10;;;;;;;;;;5033865;28;20092;-58
2024/04/08 00:20:05;;;;;;;112.15;106.55;;;;;;;;;;5033547;28;20078;-58
2024/04/08 00:22:31;;;;;;;107.07;101.60;;;;;;;;;;5031960;28;20036;-59
2024/04/08 00:24:56;;;;;;;112.03;106.28;;;;;;;;;;5036057;28;20045;-58
2024/04/08 00:27:22;;;;;;;116.95;111.18;;;;;;;;;;5031925;28;20045;-58
2024/04/08 00:29:47;;;;;;;114.55;108.85;;;;;;;;;;5033567;28;20037;-58
2024/04/08 00:32:13;;;;;;;124.70;118.50;;;;;;;;;;5032098;28;20124;-58
2024/04/08 00:34:40;;;;;;;119.90;113.95;;;;;;;;;;5030195;28;20108;-58
2024/04/08 00:37:06;;;;;;;122.97;116.82;;;;;;;;;;5030546;28;20184;-58
2024/04/08 00:39:35;;;;;;;117.55;111.72;;;;;;;;;;5032640;28;20060;-59
2024/04/08 00:42:01;;;;;;;120.75;114.75;;;;;;;;;;5032388;28;20398;-59
2024/04/08 00:44:27;;;;;;;119.22;113.28;;;;;;;;;;5030695;28;20487;-59
2024/04/08 00:46:53;;;;;;;123.00;116.88;;;;;;;;;;5029236;28;20044;-58
2024/04/08 00:49:19;;;;;;;117.45;111.60;;;;;;;;;;5029258;28;20029;-59
2024/04/08 00:51:45;;;;;;;116.72;110.88;;;;;;;;;;5031772;28;20569;-59
2024/04/08 00:54:11;;;;;;;115.10;109.35;;;;;;;;;;5030388;28;20463;-58
2024/04/08 00:56:38;;;;;;;115.20;109.35;;;;;;;;;;5029000;28;20049;-59
2024/04/08 00:59:06;;;;;;;125.68;119.45;;;;;;;;;;5029875;28;20391;-59
2024/04/08 01:01:32;;;;;;;121.88;115.43;;;;;;;;;;5030541;28;20037;-59
2024/04/08 01:03:58;;;;;;;120.40;113.93;;;;;;;;;;5032300;28;20028;-56
2024/04/08 01:06:23;;;;;;;125.85;119.60;;;;;;;;;;5030745;28;20034;-59
2024/04/08 01:08:49;;;;;;;130.18;123.50;;;;;;;;;;5033354;28;20132;-59
2024/04/08 01:11:15;;;;;;;121.65;115.60;;;;;;;;;;5034226;28;21226;-59
2024/04/08 01:13:40;;;;;;;123.82;117.57;;;;;;;;;;5028751;28;20040;-59
2024/04/08 01:16:06;;;;;;;121.70;115.47;;;;;;;;;;5031050;28;20472;-60
2024/04/08 01:18:32;;;;;;;120.45;114.38;;;;;;;;;;5030697;28;20044;-58
2024/04/08 01:20:59;;;;;;;117.28;111.45;;;;;;;;;;5032727;28;20131;-59
2024/04/08 01:23:25;;;;;;;114.68;108.97;;;;;;;;;;5030954;28;20094;-59
2024/04/08 01:25:50;;;;;;;109.50;104.05;;;;;;;;;;5031441;28;20040;-59
2024/04/08 01:28:16;;;;;;;110.50;104.95;;;;;;;;;;5030230;28;20049;-59
2024/04/08 01:30:44;;;;;;;110.57;104.93;;;;;;;;;;5029484;28;20110;-59
2024/04/08 01:33:09;;;;;;;113.65;107.80;;;;;;;;;;5030177;28;20562;-58
2024/04/08 01:35:35;;;;;;;110.55;105.05;;;;;;;;;;5028807;28;20317;-58
2024/04/08 01:38:00;;;;;;;112.00;106.30;;;;;;;;;;5031133;28;20087;-59
2024/04/08 01:40:26;;;;;;;109.28;103.85;;;;;;;;;;5032076;28;20128;-59
2024/04/08 01:42:51;;;;;;;104.43;99.13;;;;;;;;;;5028362;28;20403;-59
2024/04/08 01:45:16;;;;;;;94.80;90.10;;;;;;;;;;5037066;28;20029;-60
2024/04/08 01:47:42;;;;;;;90.95;86.40;;;;;;;;;;5034748;28;20534;-58
2024/04/08 01:50:07;;;;;;;85.18;80.90;;;;;;;;;;5033622;28;20044;-59
2024/04/08 01:52:32;;;;;;;86.13;81.68;;;;;;;;;;5027348;28;20414;-59
2024/04/08 01:54:58;;;;;;;78.75;74.82;;;;;;;;;;5035337;28;20025;-58
2024/04/08 01:57:23;;;;;;;73.78;70.07;;;;;;;;;;5030773;28;20123;-58
2024/04/08 01:59:48;;;;;;;75.15;71.35;;;;;;;;;;5027998;28;20467;-58
2024/04/08 02:02:14;;;;;;;76.43;72.60;;;;;;;;;;5030144;28;20029;-58
2024/04/08 02:04:39;;;;;;;69.95;66.38;;;;;;;;;;5030608;28;20028;-58
2024/04/08 02:07:04;;;;;;;69.95;66.07;;;;;;;;;;5027381;28;20037;-58
2024/04/08 02:09:30;;;;;;;65.30;61.40;;;;;;;;;;5029937;28;20122;-58
2024/04/08 02:11:55;;;;;;;71.43;67.88;;;;;;;;;;5027990;28;20080;-58
2024/04/08 02:14:21;;;;;;;72.93;69.28;;;;;;;;;;5030296;28;20033;-59
2024/04/08 02:16:46;;;;;;;71.90;68.07;;;;;;;;;;5031838;28;20046;-59
2024/04/08 02:19:11;;;;;;;69.03;65.55;;;;;;;;;;5031115;28;20040;-59
2024/04/08 02:21:37;;;;;;;72.30;68.00;;;;;;;;;;5030741;28;20033;-59
2024/04/08 02:24:02;;;;;;;70.88;66.15;;;;;;;;;;5029272;28;20033;-59
2024/04/08 02:26:28;;;;;;;70.80;67.22;;;;;;;;;;5032939;28;20079;-59
2024/04/08 02:28:56;;;;;;;68.25;64.78;;;;;;;;;;5029334;28;20037;-59
2024/04/08 02:31:22;;;;;;;64.40;60.25;;;;;;;;;;5030618;28;20117;-59
2024/04/08 02:33:47;;;;;;;63.33;59.42;;;;;;;;;;5030602;28;20124;-60
2024/04/08 02:36:13;;;;;;;59.80;56.63;;;;;;;;;;5027767;28;20120;-59
2024/04/08 02:38:38;;;;;;;63.25;59.97;;;;;;;;;;5028584;28;20048;-59
2024/04/08 02:41:04;;;;;;;65.55;62.22;;;;;;;;;;5032456;28;20024;-59
2024/04/08 02:43:29;;;;;;;61.83;58.60;;;;;;;;;;5029150;28;20041;-57
2024/04/08 02:45:54;;;;;;;60.92;57.75;;;;;;;;;;5031715;28;20080;-58
2024/04/08 02:48:20;;;;;;;63.67;60.25;;;;;;;;;;5031565;28;20128;-57
2024/04/08 02:50:46;;;;;;;61.83;58.17;;;;;;;;;;5029829;28;20040;-57
2024/04/08 02:53:11;;;;;;;60.40;56.80;;;;;;;;;;5029723;28;20033;-57
2024/04/08 02:55:37;;;;;;;72.93;68.22;;;;;;;;;;5030680;28;20033;-59
2024/04/08 02:58:03;;;;;;;67.78;64.32;;;;;;;;;;5030046;28;20123;-59
2024/04/08 03:00:29;;;;;;;77.85;73.93;;;;;;;;;;5027206;28;20072;-59
2024/04/08 03:02:54;;;;;;;71.72;68.10;;;;;;;;;;5031888;28;20136;-59
2024/04/08 03:05:20;;;;;;;70.22;66.60;;;;;;;;;;5028492;28;20690;-59
2024/04/08 03:07:45;;;;;;;70.22;66.65;;;;;;;;;;5028086;28;20522;-58
2024/04/08 03:10:11;;;;;;;74.63;70.88;;;;;;;;;;5034451;28;20034;-59
2024/04/08 03:12:36;;;;;;;71.50;67.90;;;;;;;;;;5035642;28;20042;-58
2024/04/08 03:15:02;;;;;;;71.65;67.82;;;;;;;;;;5032127;28;20532;-58
2024/04/08 03:17:28;;;;;;;76.40;72.50;;;;;;;;;;5033925;28;20037;-59
2024/04/08 03:19:57;;;;;;;80.60;76.25;;;;;;;;;;5034363;28;20033;-59
2024/04/08 03:22:24;;;;;;;76.72;72.85;;;;;;;;;;5033263;28;20080;-58
2024/04/08 03:24:49;;;;;;;71.40;67.55;;;;;;;;;;5031973;28;20411;-59
2024/04/08 03:27:14;;;;;;;71.47;67.78;;;;;;;;;;5031755;28;20113;-59
2024/04/08 03:29:39;;;;;;;79.85;75.85;;;;;;;;;;5031789;28;20035;-58
2024/04/08 03:32:05;;;;;;;87.32;82.97;;;;;;;;;;5035797;28;20042;-59
2024/04/08 03:34:35;;;;;;;74.75;70.97;;;;;;;;;;5034394;28;20041;-59
2024/04/08 03:37:01;;;;;;;73.05;69.05;;;;;;;;;;5033307;28;20124;-58
2024/04/08 03:39:26;;;;;;;72.03;68.40;;;;;;;;;;5033813;28;20112;-58
2024/04/08 03:41:53;;;;;;;69.93;66.32;;;;;;;;;;5031791;28;20037;-59
2024/04/08 03:44:19;;;;;;;67.15;63.03;;;;;;;;;;5034226;28;20115;-59
2024/04/08 03:46:44;;;;;;;65.03;61.72;;;;;;;;;;5035356;28;20486;-58
2024/04/08 03:49:09;;;;;;;56.92;54.03;;;;;;;;;;5032693;28;20040;-58
2024/04/08 03:51:35;;;;;;;51.30;48.65;;;;;;;;;;5034560;28;20099;-59
2024/04/08 03:54:00;;;;;;;52.00;49.33;;;;;;;;;;5032412;28;20086;-59
2024/04/08 03:56:25;;;;;;;48.08;45.60;;;;;;;;;;5034404;28;20116;-59
2024/04/08 03:58:51;;;;;;;47.53;45.08;;;;;;;;;;5031579;28;20032;-59
2024/04/08 04:01:16;;;;;;;48.92;45.92;;;;;;;;;;5032656;28;20053;-58
2024/04/08 04:03:41;;;;;;;45.47;43.17;;;;;;;;;;5029359;28;20044;-59
2024/04/08 04:06:07;;;;;;;44.53;42.13;;;;;;;;;;5032401;28;20124;-59
2024/04/08 04:08:32;;;;;;;45.30;42.97;;;;;;;;;;5031162;28;20060;-57
2024/04/08 04:10:58;;;;;;;45.10;42.60;;;;;;;;;;5031949;28;20073;-57
2024/04/08 04:13:24;;;;;;;42.67;40.47;;;;;;;;;;5030182;28;20235;-58
2024/04/08 04:15:49;;;;;;;42.55;40.38;;;;;;;;;;5031491;28;20056;-59
2024/04/08 04:18:15;;;;;;;43.00;40.80;;;;;;;;;;5032611;28;20112;-59
2024/04/08 04:20:42;;;;;;;42.80;40.58;;;;;;;;;;5028731;28;20040;-59
2024/04/08 04:23:14;;;;;;;44.38;42.08;;;;;;;;;;5029921;28;20033;-59
2024/04/08 04:25:39;;;;;;;44.58;41.92;;;;;;;;;;5029322;28;20123;-59
2024/04/08 04:28:05;;;;;;;42.90;40.38;;;;;;;;;;5022762;28;20556;-58
2024/04/08 04:30:30;;;;;;;44.03;41.78;;;;;;;;;;5028331;28;20029;-59
2024/04/08 04:32:56;;;;;;;42.58;40.40;;;;;;;;;;5032709;28;20103;-58
2024/04/08 04:35:22;;;;;;;42.80;40.60;;;;;;;;;;5029823;28;20045;-60
2024/04/08 04:37:49;;;;;;;45.70;43.33;;;;;;;;;;5029130;28;20028;-59
2024/04/08 04:40:15;;;;;;;51.10;48.47;;;;;;;;;;5029321;28;20045;-55
2024/04/08 04:42:44;;;;;;;51.85;49.20;;;;;;;;;;5027073;28;20048;-58
2024/04/08 04:45:09;;;;;;;56.58;53.75;;;;;;;;;;5031626;28;20037;-59
2024/04/08 04:47:34;;;;;;;59.15;56.10;;;;;;;;;;5028979;28;20052;-60
2024/04/08 04:50:00;;;;;;;62.90;59.72;;;;;;;;;;5030361;28;20087;-57
2024/04/08 04:52:25;;;;;;;60.25;57.20;;;;;;;;;;5029731;28;20099;-58
2024/04/08 04:54:50;;;;;;;60.05;56.97;;;;;;;;;;5027620;28;20086;-57
2024/04/08 04:57:16;;;;;;;50.85;48.28;;;;;;;;;;5032147;28;20036;-58
2024/04/08 04:59:41;;;;;;;54.75;51.90;;;;;;;;;;5029189;28;20747;-59
2024/04/08 05:02:06;;;;;;;56.88;53.63;;;;;;;;;;5032028;28;20037;-57
2024/04/08 05:04:32;;;;;;;51.00;48.42;;;;;;;;;;5033914;28;20025;-58
2024/04/08 05:06:57;;;;;;;48.65;46.10;;;;;;;;;;5033935;28;20047;-56
2024/04/08 05:09:23;;;;;;;48.15;45.67;;;;;;;;;;5030953;28;20036;-58
2024/04/08 05:11:48;;;;;;;51.42;47.85;;;;;;;;;;5027742;28;20053;-56
2024/04/08 05:14:13;;;;;;;43.47;41.22;;;;;;;;;;5028429;28;20506;-57
2024/04/08 05:16:39;;;;;;;45.17;42.83;;;;;;;;;;5028499;28;20364;-56
2024/04/08 05:19:04;;;;;;;46.22;43.90;;;;;;;;;;5029246;28;20038;-57
2024/04/08 05:21:29;;;;;;;53.88;51.13;;;;;;;;;;5031538;28;20037;-57
2024/04/08 05:23:55;;;;;;;57.95;55.03;;;;;;;;;;5027902;28;20029;-59
2024/04/08 05:26:20;;;;;;;51.53;48.63;;;;;;;;;;5025688;28;20036;-59
2024/04/08 05:28:46;;;;;;;50.17;47.38;;;;;;;;;;5030547;28;20407;-58
2024/04/08 05:31:12;;;;;;;53.53;50.65;;;;;;;;;;5030390;28;20029;-59
2024/04/08 05:33:37;;;;;;;53.65;50.90;;;;;;;;;;5030384;28;20086;-59
2024/04/08 05:36:04;;;;;;;52.38;49.70;;;;;;;;;;5028381;28;20060;-60
2024/04/08 05:38:29;;;;;;;51.95;49.25;;;;;;;;;;5029408;28;20033;-59
2024/04/08 05:41:00;;;;;;;65.72;62.40;;;;;;;;;;5027192;28;20057;-58
2024/04/08 05:43:25;;;;;;;;;;;;;;;;;;5025438;28;20037;-58
2024/04/08 05:45:51;;;;;;;52.15;49.47;;;;;;;;;;5027902;28;19974;-58
2024/04/08 05:48:16;;;;;;;63.72;60.55;;;;;;;;;;5027852;28;20053;-58
2024/04/08 05:50:41;;;;;;;66.90;63.42;;;;;;;;;;5027741;28;20114;-57
2024/04/08 05:53:07;;;;;;;61.42;58.33;;;;;;;;;;5029435;28;20059;-57
2024/04/08 05:55:32;;;;;;;63.90;59.90;;;;;;;;;;5026447;28;20357;-57
2024/04/08 05:57:58;;;;;;;68.88;64.68;;;;;;;;;;5026642;28;20032;-58
2024/04/08 06:00:23;;;;;;;56.58;53.67;;;;;;;;;;5025698;28;20083;-58
2024/04/08 06:02:54;;;;;;;62.78;59.40;;;;;;;;;;5029206;28;20490;-58
2024/04/08 06:05:21;;;;;;;66.43;63.00;;;;;;;;;;5030369;28;20112;-58
2024/04/08 06:07:49;;;;;;;66.43;63.03;;;;;;;;;;5032717;28;20041;-58
2024/04/08 06:10:18;;;;;;;69.75;65.43;;;;;;;;;;5030546;28;20029;-58
2024/04/08 06:12:44;;;;;;;66.40;63.08;;;;;;;;;;5027945;28;20080;-58
2024/04/08 06:15:11;;;;;;;69.25;65.57;;;;;;;;;;5032613;28;20398;-58
2024/04/08 06:17:37;;;;;;;67.15;63.45;;;;;;;;;;5030952;28;20559;-58
2024/04/08 06:20:03;;;;;;;70.15;66.45;;;;;;;;;;5030799;28;20115;-58
2024/04/08 06:22:28;;;;;;;67.60;64.20;;;;;;;;;;5029809;28;20147;-58
2024/04/08 06:24:53;;;;;;;69.55;65.95;;;;;;;;;;5033009;28;20134;-57
2024/04/08 06:27:19;;;;;;;76.43;72.60;;;;;;;;;;5030772;28;20041;-58
2024/04/08 06:29:44;;;;;;;81.38;77.10;;;;;;;;;;5033947;28;20628;-58
2024/04/08 06:32:09;;;;;;;76.03;72.13;;;;;;;;;;5030207;28;20132;-58
2024/04/08 06:34:35;;;;;;;81.80;77.65;;;;;;;;;;5029733;28;20048;-58
2024/04/08 06:37:01;;;;;;;84.03;79.68;;;;;;;;;;5014853;28;20037;-58
2024/04/08 06:39:27;;;;;;;78.85;74.68;;;;;;;;;;5030140;28;20045;-58
2024/04/08 06:41:52;;;;;;;87.10;82.50;;;;;;;;;;5029684;28;20033;-58
2024/04/08 06:44:18;;;;;;;74.20;69.97;;;;;;;;;;5032524;28;20196;-58
2024/04/08 06:46:43;;;;;;;69.72;66.20;;;;;;;;;;5034541;28;20364;-58
2024/04/08 06:49:09;;;;;;;79.63;75.65;;;;;;;;;;5034585;28;20196;-58
2024/04/08 06:51:35;;;;;;;62.75;59.55;;;;;;;;;;5032279;28;20048;-58
2024/04/08 06:54:00;;;;;;;72.40;68.68;;;;;;;;;;5033224;28;20478;-58
2024/04/08 06:56:26;;;;;;;58.40;55.35;;;;;;;;;;5034250;28;20116;-60
2024/04/08 06:58:51;;;;;;;60.47;57.40;;;;;;;;;;5036669;28;20524;-58
2024/04/08 07:01:17;;;;;;;56.42;53.47;;;;;;;;;;5035229;28;20117;-58
2024/04/08 07:03:42;;;;;;;55.45;52.50;;;;;;;;;;5035860;28;20045;-58
2024/04/08 07:06:08;;;;;;;55.00;51.72;;;;;;;;;;5033256;28;20052;-57
2024/04/08 07:08:34;;;;;;;51.28;47.58;;;;;;;;;;5035289;28;20042;-57
2024/04/08 07:11:00;;;;;;;64.65;61.30;;;;;;;;;;5037512;28;20060;-55
2024/04/08 07:13:25;;;;;;;65.50;62.17;;;;;;;;;;5034376;28;20034;-58
2024/04/08 07:15:58;;;;;;;83.20;78.53;;;;;;;;;;5037767;28;20052;-57
2024/04/08 07:18:24;;;;;;;100.47;95.32;;;;;;;;;;5033025;28;20470;-58
2024/04/08 07:20:49;;;;;;;109.00;103.30;;;;;;;;;;5035236;28;20053;-58
2024/04/08 07:23:15;;;;;;;110.55;105.07;;;;;;;;;;5034812;28;20124;-59
2024/04/08 07:25:40;;;;;;;160.25;152.30;;;;;;;;;;5036586;28;20374;-58
2024/04/08 07:28:05;;;;;;;155.85;148.13;;;;;;;;;;5034214;28;20055;-58
2024/04/08 07:30:31;;;;;;;128.43;121.80;;;;;;;;;;5036860;28;20033;-58
2024/04/08 07:32:57;;;;;;;155.63;147.38;;;;;;;;;;5033895;28;20040;-58
2024/04/08 07:35:23;;;;;;;136.10;129.32;;;;;;;;;;5032712;28;20033;-58
2024/04/08 07:37:48;;;;;;;118.90;112.63;;;;;;;;;;5034760;28;20052;-58
2024/04/08 07:40:14;;;;;;;182.52;173.38;;;;;;;;;;5034281;28;20037;-58
2024/04/08 07:42:39;;;;;;;303.90;288.65;;;;;;;;;;5034866;28;20041;-58
2024/04/08 07:45:06;;;;;;;253.98;240.95;;;;;;;;;;5030154;28;20471;-58
2024/04/08 07:47:32;;;;;;;398.17;376.02;;;;;;;;;;5033045;28;20300;-58
2024/04/08 07:49:57;;;;;;;503.38;476.08;;;;;;;;;;5024929;28;20098;-59
2024/04/08 07:52:23;;;;;;;508.48;480.63;;;;;;;;;;5033530;28;20029;-58
2024/04/08 07:54:49;;;;;;;475.73;450.17;;;;;;;;;;5034146;28;20025;-58
2024/04/08 07:57:14;;;;;;;498.23;471.20;;;;;;;;;;5033809;28;20474;-58
2024/04/08 07:59:39;;;;;;;533.72;504.15;;;;;;;;;;5033546;28;20037;-58
2024/04/08 08:02:05;;;;;;;468.58;443.60;;;;;;;;;;5033909;28;20415;-59
2024/04/08 08:04:30;;;;;;;251.23;238.77;;;;;;;;;;5035852;28;20053;-58
2024/04/08 08:06:56;;;;;;;302.95;287.77;;;;;;;;;;5031236;28;20707;-59
2024/04/08 08:09:21;;;;;;;167.07;158.40;;;;;;;;;;5030451;28;20127;-58
2024/04/08 08:11:46;;;;;;;119.53;112.57;;;;;;;;;;5031609;28;20032;-58
2024/04/08 08:14:12;;;;;;;139.02;131.98;;;;;;;;;;5032350;28;20629;-58
2024/04/08 08:16:38;;;;;;;143.00;135.85;;;;;;;;;;5033361;28;20289;-58
2024/04/08 08:19:04;;;;;;;191.30;181.77;;;;;;;;;;5034479;28;20187;-59
2024/04/08 08:21:29;;;;;;;144.27;136.98;;;;;;;;;;5030845;28;20030;-58
2024/04/08 08:23:56;;;;;;;130.27;123.78;;;;;;;;;;5035253;28;20433;-58
2024/04/08 08:26:22;;;;;;;108.80;103.13;;;;;;;;;;5033918;28;20060;-58
2024/04/08 08:28:47;;;;;;;82.93;78.78;;;;;;;;;;5032238;28;20049;-58
2024/04/08 08:31:13;;;;;;;117.43;111.35;;;;;;;;;;5032099;28;20045;-58
2024/04/08 08:33:39;;;;;;;112.80;107.25;;;;;;;;;;5032414;28;20036;-58
2024/04/08 08:36:04;;;;;;;113.70;108.07;;;;;;;;;;5030859;28;20038;-58
2024/04/08 08:38:30;;;;;;;111.10;105.13;;;;;;;;;;5030872;28;20080;-58
2024/04/08 08:41:06;;;;;;;93.47;88.63;;;;;;;;;;5034014;28;20071;-57
2024/04/08 08:43:33;;;;;;;102.80;97.63;;;;;;;;;;5028114;28;20494;-58
2024/04/08 08:45:59;;;;;;;87.07;82.70;;;;;;;;;;5032067;28;20370;-58
2024/04/08 08:48:25;;;;;;;87.40;83.05;;;;;;;;;;5034249;28;20032;-58
2024/04/08 08:50:50;;;;;;;166.32;157.95;;;;;;;;;;5031294;28;20047;-58
2024/04/08 08:53:16;;;;;;;78.28;73.72;;;;;;;;;;5033068;28;20131;-58
2024/04/08 08:55:42;;;;;;;93.88;88.80;;;;;;;;;;5032637;28;20343;-58
2024/04/08 08:58:10;;;;;;;83.60;79.40;;;;;;;;;;5029680;28;20094;-58
2024/04/08 09:00:39;;;;;;;121.45;115.40;;;;;;;;;;5034352;28;20059;-59
2024/04/08 09:03:12;;;;;;;105.78;100.50;;;;;;;;;;5028564;28;20041;-58
2024/04/08 09:05:37;;;;;;;129.02;122.57;;;;;;;;;;5032921;28;20037;-58
2024/04/08 09:08:03;;;;;;;112.25;106.68;;;;;;;;;;5035202;28;20041;-58
2024/04/08 09:10:46;;;;;;;135.63;128.57;;;;;;;;;;5034859;28;20123;-59
2024/04/08 09:13:22;;;;;;;142.07;134.82;;;;;;;;;;5033573;28;20028;-58
2024/04/08 09:15:49;;;;;;;140.32;133.30;;;;;;;;;;5033875;28;20040;-58
2024/04/08 09:18:16;;;;;;;153.07;145.45;;;;;;;;;;5033045;28;20064;-58
2024/04/08 09:20:41;;;;;;;105.38;100.13;;;;;;;;;;5032712;28;20359;-59
2024/04/08 09:23:07;;;;;;;137.57;130.70;;;;;;;;;;5034201;28;20115;-58
2024/04/08 09:25:34;;;;;;;113.18;107.38;;;;;;;;;;5031086;28;20099;-58
2024/04/08 09:27:59;;;;;;;114.93;109.18;;;;;;;;;;5033134;28;20112;-59
2024/04/08 09:30:24;;;;;;;118.00;112.05;;;;;;;;;;5031513;28;20128;-59
2024/04/08 09:32:51;;;;;;;183.85;174.50;;;;;;;;;;5028622;28;20044;-58
2024/04/08 09:35:16;;;;;;;133.93;127.05;;;;;;;;;;5031215;28;20105;-58
2024/04/08 09:37:42;;;;;;;153.88;146.15;;;;;;;;;;5029554;28;20040;-58
2024/04/08 09:40:10;;;;;;;217.48;206.25;;;;;;;;;;5030545;28;20452;-58
2024/04/08 09:42:36;;;;;;;234.07;222.20;;;;;;;;;;5027203;28;20033;-58
2024/04/08 09:46:13;;;;;;;112.05;106.15;;;;;;;;;;5440316;26;20438;-59
2024/04/08 09:48:40;;;;;;;122.35;116.20;;;;;;;;;;5426782;26;20018;-60
2024/04/08 09:51:08;;;;;;;179.77;170.43;;;;;;;;;;5429984;26;20003;-60
2024/04/08 09:53:35;;;;;;;121.38;115.25;;;;;;;;;;5427042;26;20011;-60
2024/04/08 09:56:04;;;;;;;255.15;241.95;;;;;;;;;;5430426;26;20192;-58
2024/04/08 09:58:33;;;;;;;138.23;130.93;;;;;;;;;;5424973;26;20329;-58
2024/04/08 10:01:05;;;;;;;250.45;237.48;;;;;;;;;;5425626;26;20019;-57
2024/04/08 10:03:51;;;;;;;213.38;202.55;;;;;;;;;;5424694;26;20011;-57
2024/04/08 10:06:20;;;;;;;242.32;229.95;;;;;;;;;;5426580;26;20019;-58
2024/04/08 10:08:47;;;;;;;349.80;331.33;;;;;;;;;;5424047;26;20018;-58
2024/04/08 10:11:14;;;;;;;378.80;358.38;;;;;;;;;;5424548;26;20011;-58
2024/04/08 10:13:49;;;;;;;383.75;363.08;;;;;;;;;;5426410;26;20017;-58
2024/04/08 10:16:16;;;;;;;496.58;468.63;;;;;;;;;;5426025;26;20022;-58
2024/04/08 10:18:50;;;;;;;486.67;459.80;;;;;;;;;;5426904;26;20018;-58
2024/04/08 10:21:16;;;;;;;485.00;457.80;;;;;;;;;;5421481;26;20010;-58
2024/04/08 10:23:42;;;;;;;535.67;504.80;;;;;;;;;;5426064;26;20000;-58
2024/04/08 10:26:13;;;;;;;514.17;484.88;;;;;;;;;;5427663;26;20015;-58
2024/04/08 10:28:42;;;;;;;499.08;471.02;;;;;;;;;;5423758;26;20046;-58
2024/04/08 10:31:08;;;;;;;527.10;496.58;;;;;;;;;;5430044;26;20010;-58
2024/04/08 10:33:34;;;;;;;539.63;508.65;;;;;;;;;;5427541;26;20027;-58
2024/04/08 10:35:59;;;;;;;499.27;470.73;;;;;;;;;;5423933;26;20433;-58
2024/04/08 10:38:27;;;;;;;529.67;499.17;;;;;;;;;;5425942;26;20052;-58
2024/04/08 10:40:53;;;;;;;522.58;492.63;;;;;;;;;;5431155;26;20003;-58
2024/04/08 10:43:20;;;;;;;550.53;518.05;;;;;;;;;;5430934;26;20006;-58
2024/04/08 10:45:46;;;;;;;534.45;503.33;;;;;;;;;;5424775;26;20073;-58
2024/04/08 10:48:11;;;;;;;554.15;521.28;;;;;;;;;;5428004;26;20015;-58
2024/04/08 10:50:37;;;;;;;551.88;519.20;;;;;;;;;;5426051;26;20023;-58
2024/04/08 10:53:03;;;;;;;594.55;558.22;;;;;;;;;;5428522;26;20015;-58
2024/04/08 10:55:28;;;;;;;552.50;519.63;;;;;;;;;;5421063;26;20019;-58
2024/04/08 10:57:53;;;;;;;537.83;506.38;;;;;;;;;;5410783;26;20311;-58
2024/04/08 11:00:19;;;;;;;536.13;504.90;;;;;;;;;;5406443;26;20014;-58
2024/04/08 11:02:44;;;;;;;536.95;505.45;;;;;;;;;;5409427;26;20040;-58
2024/04/08 11:05:12;;;;;;;514.38;484.70;;;;;;;;;;5411086;26;20086;-58
2024/04/08 11:07:37;;;;;;;537.25;505.88;;;;;;;;;;5413066;26;20027;-58
2024/04/08 11:10:22;;;;;;;553.45;521.33;;;;;;;;;;5415619;26;20018;-58
2024/04/08 11:12:47;;;;;;;554.35;521.90;;;;;;;;;;5407530;26;20003;-58
2024/04/08 11:15:13;;;;;;;569.38;535.45;;;;;;;;;;5411509;26;20381;-58
2024/04/08 11:17:40;;;;;;;609.15;571.65;;;;;;;;;;5405233;26;20229;-58
2024/04/08 11:20:06;;;;;;;585.90;550.15;;;;;;;;;;5407784;26;20039;-58
2024/04/08 11:22:33;;;;;;;558.38;525.35;;;;;;;;;;5407722;26;20458;-57
2024/04/08 11:24:59;;;;;;;498.30;470.25;;;;;;;;;;5411798;26;20437;-58
2024/04/08 11:27:26;;;;;;;505.60;476.42;;;;;;;;;;5407366;26;20018;-57
2024/04/08 11:29:52;;;;;;;448.42;424.73;;;;;;;;;;5408423;26;20486;-58
2024/04/08 11:32:22;;;;;;;445.27;421.42;;;;;;;;;;5410691;26;20007;-58
2024/04/08 11:34:50;;;;;;;467.58;442.15;;;;;;;;;;5419818;26;20019;-58
2024/04/08 11:37:16;;;;;;;510.60;481.85;;;;;;;;;;5409862;26;20487;-58
2024/04/08 11:39:44;;;;;;;442.00;418.55;;;;;;;;;;5407611;26;20019;-58
2024/04/08 11:42:11;;;;;;;435.27;412.08;;;;;;;;;;5412649;26;20011;-58
2024/04/08 11:44:41;;;;;;;446.17;421.75;;;;;;;;;;5409951;26;20320;-58
2024/04/08 11:47:08;;;;;;;406.08;385.02;;;;;;;;;;5406721;26;20008;-58
2024/04/08 11:49:34;;;;;;;431.85;409.17;;;;;;;;;;5407701;26;20460;-58
2024/04/08 11:52:03;;;;;;;399.70;378.45;;;;;;;;;;5413958;26;20004;-59
2024/04/08 11:54:29;;;;;;;380.42;360.73;;;;;;;;;;5407723;26;20011;-58
2024/04/08 11:56:54;;;;;;;337.42;320.27;;;;;;;;;;5411180;26;20065;-58
2024/04/08 11:59:19;;;;;;;349.10;330.33;;;;;;;;;;5407822;26;20395;-57
2024/04/08 12:01:47;;;;;;;356.98;338.65;;;;;;;;;;5411264;26;20007;-58
2024/04/08 12:04:12;;;;;;;333.45;316.50;;;;;;;;;;5409260;26;20345;-58
2024/04/08 12:06:38;;;;;;;369.13;350.13;;;;;;;;;;5406911;26;20007;-58
2024/04/08 12:09:05;;;;;;;326.48;309.70;;;;;;;;;;5409446;26;20023;-58
2024/04/08 12:11:30;;;;;;;369.33;350.20;;;;;;;;;;5410725;26;20022;-58
2024/04/08 12:13:56;;;;;;;379.80;359.55;;;;;;;;;;5405868;26;20043;-58
2024/04/08 12:16:22;;;;;;;369.33;350.27;;;;;;;;;;5410992;26;20071;-58
2024/04/08 12:18:47;;;;;;;364.67;345.92;;;;;;;;;;5404196;26;20076;-58
2024/04/08 12:21:13;;;;;;;373.33;353.25;;;;;;;;;;5407374;26;20124;-58
2024/04/08 12:23:38;;;;;;;378.27;357.70;;;;;;;;;;5409134;26;20022;-58
2024/04/08 12:26:03;;;;;;;384.90;364.95;;;;;;;;;;5406564;26;20023;-58
2024/04/08 12:28:29;;;;;;;379.67;359.65;;;;;;;;;;5403628;26;20018;-58
2024/04/08 12:30:55;;;;;;;329.70;312.95;;;;;;;;;;5409205;26;20019;-58
2024/04/08 12:33:20;;;;;;;258.58;245.57;;;;;;;;;;5410334;26;20020;-58
2024/04/08 12:35:46;;;;;;;298.05;283.02;;;;;;;;;;5409197;26;20011;-58
2024/04/08 12:38:13;;;;;;;300.95;285.67;;;;;;;;;;5410547;26;20107;-58
2024/04/08 12:40:39;;;;;;;325.73;309.13;;;;;;;;;;5411266;26;20007;-58
2024/04/08 12:43:04;;;;;;;326.65;310.00;;;;;;;;;;5411133;26;19999;-58
2024/04/08 12:45:29;;;;;;;339.45;322.23;;;;;;;;;;5410630;26;20437;-58
2024/04/08 12:47:55;;;;;;;297.70;282.73;;;;;;;;;;5407490;26;20082;-58
2024/04/08 12:50:20;;;;;;;270.98;257.27;;;;;;;;;;5415038;26;20333;-58
2024/04/08 12:52:46;;;;;;;266.77;253.13;;;;;;;;;;5403334;26;20007;-58
2024/04/08 12:55:11;;;;;;;252.27;239.70;;;;;;;;;;5413047;26;20016;-58
2024/04/08 12:57:37;;;;;;;220.48;209.40;;;;;;;;;;5407687;26;20027;-58
2024/04/08 13:00:03;;;;;;;225.85;214.48;;;;;;;;;;5409839;26;20053;-58
2024/04/08 13:02:28;;;;;;;230.45;218.57;;;;;;;;;;5409963;26;20391;-58
2024/04/08 13:04:54;;;;;;;211.32;200.65;;;;;;;;;;5406791;26;20340;-58
2024/04/08 13:07:20;;;;;;;223.38;212.15;;;;;;;;;;5403240;26;20121;-58
2024/04/08 13:09:47;;;;;;;192.82;183.05;;;;;;;;;;5406891;26;20021;-58
2024/04/08 13:12:12;;;;;;;217.23;206.27;;;;;;;;;;5408824;26;20073;-58
2024/04/08 13:14:37;;;;;;;237.20;225.30;;;;;;;;;;5406946;26;20019;-58
2024/04/08 13:17:03;;;;;;;184.02;174.10;;;;;;;;;;5410511;26;20008;-58
2024/04/08 13:19:28;;;;;;;203.00;192.68;;;;;;;;;;5408765;26;20073;-58
2024/04/08 13:21:54;;;;;;;153.82;146.02;;;;;;;;;;5411256;26;20669;-58
2024/04/08 13:24:19;;;;;;;178.52;169.23;;;;;;;;;;5410963;26;20022;-58
2024/04/08 13:26:46;;;;;;;161.82;153.68;;;;;;;;;;5410479;26;20006;-58
2024/04/08 13:29:12;;;;;;;157.30;149.32;;;;;;;;;;5410153;26;20018;-58
2024/04/08 13:31:37;;;;;;;146.75;139.30;;;;;;;;;;5413548;26;20016;-58
2024/04/08 13:34:03;;;;;;;133.73;126.53;;;;;;;;;;5409613;26;20012;-58
2024/04/08 13:36:29;;;;;;;132.00;125.32;;;;;;;;;;5406376;26;20022;-58
2024/04/08 13:38:54;;;;;;;186.82;177.38;;;;;;;;;;5404358;26;20426;-58
2024/04/08 13:41:20;;;;;;;144.32;136.40;;;;;;;;;;5403951;26;20008;-58
2024/04/08 13:43:45;;;;;;;131.40;124.70;;;;;;;;;;5404560;26;20011;-58
2024/04/08 13:46:11;;;;;;;127.05;120.68;;;;;;;;;;5409480;26;20021;-58
2024/04/08 13:48:36;;;;;;;141.50;134.38;;;;;;;;;;5406767;26;20003;-58
2024/04/08 13:51:03;;;;;;;131.05;123.20;;;;;;;;;;5407137;26;20019;-58
2024/04/08 13:53:28;;;;;;;136.63;129.63;;;;;;;;;;5409244;26;20192;-58
2024/04/08 13:55:56;;;;;;;143.90;136.55;;;;;;;;;;5407969;26;20007;-58
2024/04/08 13:58:22;;;;;;;145.15;137.93;;;;;;;;;;5406161;26;20010;-58